Time;durP1;ratioP1;P1;durP2;ratioP2;P2;SDS_P1;SDS_P2;PMS_P1;PMS_P2;Temp;Humidity;BMP_temperature;BMP_pressure;BME280_temperature;BME280_humidity;BME280_pressure;Samples;Min_cycle;Max_cycle;Signal;HPM_P1;HPM_P2
2021/12/30 00:01:10;;;;;;;12.27;9.20;;;5.40;99.90;;;;;;8442489;28;20193;-82
2021/12/30 00:05:11;;;;;;;12.73;8.57;;;5.40;99.90;;;;;;8453122;28;20216;-82
2021/12/30 00:09:18;;;;;;;12.23;8.03;;;5.50;99.90;;;;;;8440078;28;20235;-83
2021/12/30 00:13:20;;;;;;;12.17;8.23;;;5.60;99.90;;;;;;8454319;28;20237;-83
2021/12/30 00:17:20;;;;;;;10.40;7.97;;;5.60;99.90;;;;;;8458809;27;20199;-83
2021/12/30 00:21:23;;;;;;;13.43;9.73;;;5.60;99.90;;;;;;8458511;27;20227;-83
2021/12/30 00:25:24;;;;;;;14.37;8.93;;;5.60;99.90;;;;;;8449984;27;20211;-82
2021/12/30 00:29:25;;;;;;;13.33;9.23;;;5.60;99.90;;;;;;8459285;28;20285;-82
2021/12/30 00:33:27;;;;;;;11.43;9.37;;;5.60;99.90;;;;;;8455966;27;20274;-82
2021/12/30 00:37:28;;;;;;;12.43;8.67;;;5.60;99.90;;;;;;8446777;27;20207;-82
2021/12/30 00:41:29;;;;;;;12.50;8.57;;;5.50;99.90;;;;;;8440101;27;20195;-82
2021/12/30 00:45:31;;;;;;;10.27;7.77;;;5.50;99.90;;;;;;8442238;27;20233;-82
2021/12/30 00:49:33;;;;;;;11.63;7.37;;;5.50;99.90;;;;;;8449223;27;20540;-81
2021/12/30 00:53:34;;;;;;;12.77;8.57;;;5.50;99.90;;;;;;8466826;27;20588;-82
2021/12/30 00:57:35;;;;;;;10.03;7.40;;;5.50;99.90;;;;;;8450307;27;20192;-82
2021/12/30 01:01:37;;;;;;;9.27;6.83;;;5.50;99.90;;;;;;8456407;27;20214;-81
2021/12/30 01:05:38;;;;;;;10.23;7.47;;;5.50;99.90;;;;;;8452434;28;20275;-82
2021/12/30 01:09:39;;;;;;;9.87;5.67;;;5.60;99.90;;;;;;8459937;28;20200;-82
2021/12/30 01:13:44;;;;;;;8.13;5.73;;;5.60;99.90;;;;;;8454713;28;20183;-82
2021/12/30 01:21:48;;;;;;;8.93;5.97;;;5.60;99.90;;;;;;8452888;28;20180;-81
2021/12/30 01:25:49;;;;;;;7.17;5.03;;;5.60;99.90;;;;;;8461511;27;20216;-80
2021/12/30 01:29:51;;;;;;;7.70;5.13;;;5.50;99.90;;;;;;8463173;27;20201;-81
2021/12/30 01:33:51;;;;;;;8.70;5.70;;;5.50;99.90;;;;;;8476491;27;20190;-80
2021/12/30 01:38:00;;;;;;;10.20;6.03;;;5.50;99.90;;;;;;8439223;27;20227;-82
2021/12/30 01:42:00;;;;;;;8.90;6.00;;;5.50;99.90;;;;;;8459362;27;20260;-80
2021/12/30 01:46:06;;;;;;;12.27;7.57;;;5.40;99.90;;;;;;8460657;27;20252;-81
2021/12/30 01:50:07;;;;;;;8.57;5.70;;;5.40;99.90;;;;;;8446819;28;20177;-80
2021/12/30 01:54:09;;;;;;;7.73;5.13;;;5.40;99.90;;;;;;8448532;27;20513;-80
2021/12/30 01:58:11;;;;;;;8.93;5.83;;;5.40;99.90;;;;;;8470861;27;20183;-80
2021/12/30 02:02:12;;;;;;;9.17;6.23;;;5.40;99.90;;;;;;8454291;27;20189;-81
2021/12/30 02:06:13;;;;;;;6.70;4.80;;;5.40;99.90;;;;;;8453998;27;20208;-81
2021/12/30 02:10:15;;;;;;;7.77;5.53;;;5.40;99.90;;;;;;8450094;28;20282;-81
2021/12/30 02:14:16;;;;;;;7.93;5.63;;;5.40;99.90;;;;;;8448071;27;20222;-82
2021/12/30 02:18:18;;;;;;;13.73;7.73;;;5.50;99.90;;;;;;8463756;27;20179;-81
2021/12/30 02:22:18;;;;;;;8.70;6.17;;;5.50;99.90;;;;;;8452010;27;20220;-81
2021/12/30 02:26:19;;;;;;;8.80;5.27;;;5.50;99.90;;;;;;8450660;27;20215;-80
2021/12/30 02:30:21;;;;;;;8.73;5.90;;;5.50;99.90;;;;;;8457810;27;20195;-81
2021/12/30 02:34:23;;;;;;;7.67;6.47;;;5.50;99.90;;;;;;8463068;27;20211;-81
2021/12/30 02:38:24;;;;;;;7.77;5.17;;;5.60;99.90;;;;;;8456649;27;20185;-81
2021/12/30 02:42:25;;;;;;;10.43;6.67;;;5.60;99.90;;;;;;8449842;27;20211;-82
2021/12/30 02:46:30;;;;;;;9.13;6.70;;;5.70;99.90;;;;;;8443318;27;20207;-81
2021/12/30 02:50:31;;;;;;;14.83;9.10;;;5.70;99.90;;;;;;8447790;28;20184;-82
2021/12/30 02:54:32;;;;;;;10.40;6.73;;;5.80;99.90;;;;;;8447251;28;20462;-82
2021/12/30 02:58:33;;;;;;;8.80;6.07;;;5.80;99.90;;;;;;8449892;27;20215;-81
2021/12/30 03:02:40;;;;;;;10.23;7.07;;;5.80;99.90;;;;;;8447992;28;20256;-82
2021/12/30 03:06:41;;;;;;;10.87;7.00;;;5.80;99.90;;;;;;8456844;28;20219;-82
2021/12/30 03:10:42;;;;;;;9.03;6.37;;;5.80;99.90;;;;;;8460010;28;20259;-82
2021/12/30 03:14:43;;;;;;;8.10;5.67;;;5.80;99.90;;;;;;8459460;28;20284;-81
2021/12/30 03:18:46;;;;;;;8.70;5.50;;;5.80;99.90;;;;;;8455449;28;20183;-81
2021/12/30 03:22:47;;;;;;;15.57;8.93;;;5.80;99.90;;;;;;8463781;28;20192;-81
2021/12/30 03:26:48;;;;;;;11.40;6.20;;;5.80;99.90;;;;;;8450088;28;20219;-81
2021/12/30 03:30:50;;;;;;;11.20;7.57;;;5.80;99.90;;;;;;8453856;28;20188;-82
2021/12/30 03:34:51;;;;;;;15.87;9.40;;;5.80;99.90;;;;;;8450833;28;20183;-82
2021/12/30 03:38:53;;;;;;;14.37;8.47;;;5.90;99.90;;;;;;8449425;28;20187;-82
2021/12/30 03:42:54;;;;;;;8.73;6.13;;;5.90;99.90;;;;;;8452766;28;20251;-81
2021/12/30 03:46:55;;;;;;;9.80;6.37;;;5.90;99.90;;;;;;8456346;28;20218;-82
2021/12/30 03:50:56;;;;;;;9.53;6.30;;;5.90;99.90;;;;;;8459456;28;20298;-82
2021/12/30 03:54:57;;;;;;;13.53;8.17;;;5.90;99.90;;;;;;8458255;28;20211;-81
2021/12/30 03:58:58;;;;;;;12.30;8.10;;;5.90;99.90;;;;;;8445030;28;20245;-81
2021/12/30 04:02:59;;;;;;;22.07;11.53;;;5.90;99.90;;;;;;8465899;27;20256;-82
2021/12/30 04:07:00;;;;;;;19.27;10.23;;;5.90;99.90;;;;;;8449514;27;20215;-82
2021/12/30 04:11:02;;;;;;;12.13;7.27;;;5.90;99.90;;;;;;8450332;27;20208;-82
2021/12/30 04:15:04;;;;;;;10.77;6.50;;;5.90;99.90;;;;;;8453642;27;20199;-82
2021/12/30 04:19:06;;;;;;;9.27;6.77;;;5.90;99.90;;;;;;8451414;27;20206;-82
2021/12/30 04:23:07;;;;;;;17.63;12.67;;;5.80;99.90;;;;;;8452216;27;20191;-82
2021/12/30 04:27:08;;;;;;;18.37;10.53;;;5.80;99.90;;;;;;8453402;27;20227;-81
2021/12/30 04:31:09;;;;;;;13.43;6.10;;;5.70;99.90;;;;;;8444873;27;20180;-81
2021/12/30 04:35:12;;;;;;;10.07;6.20;;;5.70;99.90;;;;;;8451916;28;20183;-81
2021/12/30 04:39:13;;;;;;;11.00;6.97;;;5.60;99.90;;;;;;8451295;27;20283;-81
2021/12/30 04:43:13;;;;;;;11.93;6.50;;;5.60;99.90;;;;;;8439402;28;20185;-81
2021/12/30 04:47:16;;;;;;;14.93;8.30;;;5.60;99.90;;;;;;8440829;28;20204;-82
2021/12/30 04:51:17;;;;;;;15.33;10.53;;;5.60;99.90;;;;;;8445841;28;20180;-81
2021/12/30 04:55:18;;;;;;;12.00;6.13;;;5.70;99.90;;;;;;8452807;27;20206;-82
2021/12/30 04:59:19;;;;;;;16.20;9.83;;;5.80;99.90;;;;;;8458803;28;20198;-81
2021/12/30 05:03:21;;;;;;;10.73;7.57;;;5.90;99.90;;;;;;8458080;27;20215;-82
2021/12/30 05:07:22;;;;;;;10.10;7.53;;;6.00;99.90;;;;;;8451132;27;20241;-81
2021/12/30 05:11:23;;;;;;;9.17;6.40;;;6.10;99.90;;;;;;8449887;28;20207;-81
2021/12/30 05:15:24;;;;;;;8.47;6.10;;;6.10;99.90;;;;;;8452281;27;20285;-81
2021/12/30 05:19:24;;;;;;;9.60;6.10;;;6.10;99.90;;;;;;8451118;27;20184;-81
2021/12/30 05:23:26;;;;;;;15.37;12.67;;;6.20;99.90;;;;;;8451584;27;20187;-80
2021/12/30 05:27:27;;;;;;;11.23;10.03;;;6.20;99.90;;;;;;8455268;27;20212;-81
2021/12/30 05:31:28;;;;;;;13.97;8.57;;;6.20;99.90;;;;;;8455212;27;20181;-81
2021/12/30 05:35:29;;;;;;;12.80;8.23;;;6.30;99.90;;;;;;8444964;27;20237;-81
2021/12/30 05:39:30;;;;;;;9.93;7.30;;;6.30;99.90;;;;;;8458489;27;20180;-82
2021/12/30 05:43:31;;;;;;;10.43;5.93;;;6.30;99.90;;;;;;8448090;27;20188;-81
2021/12/30 05:47:33;;;;;;;8.13;6.10;;;6.40;99.90;;;;;;8448602;27;20286;-81
2021/12/30 05:51:34;;;;;;;10.37;6.60;;;6.40;99.90;;;;;;8441542;27;20180;-81
2021/12/30 05:55:35;;;;;;;9.93;8.33;;;6.40;99.90;;;;;;8447688;27;20221;-82
2021/12/30 05:59:37;;;;;;;16.70;13.97;;;6.40;99.90;;;;;;8441996;27;20211;-82
2021/12/30 06:03:37;;;;;;;9.33;7.03;;;6.40;99.90;;;;;;8439296;27;20184;-81
2021/12/30 06:07:38;;;;;;;12.03;7.57;;;6.40;99.90;;;;;;8450232;27;20206;-81
2021/12/30 06:11:39;;;;;;;10.87;7.77;;;6.40;99.90;;;;;;8460680;27;20187;-82
2021/12/30 06:15:40;;;;;;;13.27;8.00;;;6.50;99.90;;;;;;8458134;27;20234;-80
2021/12/30 06:19:42;;;;;;;10.50;6.13;;;6.50;99.90;;;;;;8455452;27;20198;-81
2021/12/30 06:23:43;;;;;;;13.60;6.90;;;6.60;99.90;;;;;;8451536;27;20179;-82
2021/12/30 06:27:44;;;;;;;9.30;6.90;;;6.60;99.90;;;;;;8467400;27;20229;-81
2021/12/30 06:31:45;;;;;;;9.40;6.53;;;6.70;99.90;;;;;;8448865;27;20187;-82
2021/12/30 06:35:45;;;;;;;11.23;7.37;;;6.80;99.90;;;;;;8438381;27;20214;-83
2021/12/30 06:39:46;;;;;;;11.83;8.30;;;6.80;99.90;;;;;;8453024;27;20215;-82
2021/12/30 06:43:49;;;;;;;10.97;7.40;;;6.90;99.90;;;;;;8442855;28;20218;-82
2021/12/30 06:47:50;;;;;;;11.33;6.80;;;7.00;99.90;;;;;;8442959;27;20207;-83
2021/12/30 06:51:51;;;;;;;9.07;6.57;;;7.10;99.90;;;;;;8444863;27;20184;-84
2021/12/30 06:55:53;;;;;;;11.87;7.10;;;7.10;99.90;;;;;;8438703;28;20275;-83
2021/12/30 06:59:54;;;;;;;10.90;7.10;;;7.20;99.90;;;;;;8445105;27;20464;-83
2021/12/30 07:03:55;;;;;;;10.13;7.13;;;7.30;99.90;;;;;;8447023;27;20251;-83
2021/12/30 07:07:56;;;;;;;15.37;7.43;;;7.30;99.90;;;;;;8437285;28;20233;-83
2021/12/30 07:11:57;;;;;;;14.27;8.67;;;7.40;99.90;;;;;;8449738;28;20489;-83
2021/12/30 07:15:59;;;;;;;13.63;8.80;;;7.40;99.90;;;;;;8448931;28;20219;-83
2021/12/30 07:20:01;;;;;;;14.40;8.67;;;7.50;99.90;;;;;;8447179;28;20191;-83
2021/12/30 07:24:02;;;;;;;12.30;7.23;;;7.50;99.90;;;;;;8449569;27;20188;-82
2021/12/30 07:28:04;;;;;;;11.53;7.07;;;7.60;99.90;;;;;;8453519;27;20219;-84
2021/12/30 07:32:05;;;;;;;11.97;7.73;;;7.70;99.90;;;;;;8459489;27;20184;-85
2021/12/30 07:36:06;;;;;;;11.67;7.80;;;7.70;99.90;;;;;;8459787;27;20195;-84
2021/12/30 07:40:08;;;;;;;11.50;7.93;;;7.70;99.90;;;;;;8459811;27;20202;-82
2021/12/30 07:44:09;;;;;;;12.33;7.90;;;7.80;99.90;;;;;;8456636;28;20184;-83
2021/12/30 07:48:10;;;;;;;14.20;7.37;;;7.80;99.90;;;;;;8451760;27;20242;-85
2021/12/30 07:52:11;;;;;;;16.00;8.03;;;7.90;99.90;;;;;;8449499;27;20240;-84
2021/12/30 07:56:11;;;;;;;12.40;7.77;;;7.90;99.90;;;;;;8462444;27;20188;-79
2021/12/30 08:00:17;;;;;;;12.37;7.40;;;8.20;99.90;;;;;;8453552;28;20187;-78
2021/12/30 08:04:17;;;;;;;10.33;6.83;;;8.50;99.90;;;;;;8450913;27;20188;-78
2021/12/30 08:08:18;;;;;;;8.97;5.90;;;8.60;99.90;;;;;;8459685;27;20219;-78
2021/12/30 08:12:19;;;;;;;6.60;5.00;;;8.60;99.90;;;;;;8447122;27;20203;-79
2021/12/30 08:16:20;;;;;;;12.43;6.13;;;8.70;99.90;;;;;;8446977;27;20209;-79
2021/12/30 08:20:22;;;;;;;9.63;5.67;;;8.70;99.90;;;;;;8446339;28;20234;-79
2021/12/30 08:24:23;;;;;;;8.50;6.57;;;8.70;99.90;;;;;;8453335;27;20361;-80
2021/12/30 08:28:25;;;;;;;8.47;5.10;;;8.70;99.90;;;;;;8455327;27;20189;-80
2021/12/30 08:32:26;;;;;;;9.00;5.30;;;8.70;99.90;;;;;;8456405;28;20253;-80
2021/12/30 08:36:26;;;;;;;9.93;5.20;;;8.80;99.90;;;;;;8455520;28;20188;-78
2021/12/30 08:40:27;;;;;;;10.50;4.67;;;8.80;99.90;;;;;;8453830;27;20190;-79
2021/12/30 08:44:28;;;;;;;8.73;5.33;;;8.90;99.90;;;;;;8452866;27;20204;-79
2021/12/30 08:48:29;;;;;;;9.27;4.43;;;8.90;99.90;;;;;;8466337;27;20194;-79
2021/12/30 08:52:30;;;;;;;7.27;4.47;;;9.10;99.90;;;;;;8443906;28;20197;-80
2021/12/30 08:56:31;;;;;;;7.90;4.77;;;9.10;99.90;;;;;;8453236;27;20191;-79
2021/12/30 09:00:38;;;;;;;7.50;5.80;;;9.10;99.90;;;;;;8445181;28;20276;-79
2021/12/30 09:04:42;;;;;;;9.53;5.17;;;9.20;99.90;;;;;;8442267;28;20204;-80
2021/12/30 09:08:43;;;;;;;7.60;4.57;;;9.30;99.90;;;;;;8438505;28;20428;-79
2021/12/30 09:12:45;;;;;;;10.40;4.27;;;9.20;99.90;;;;;;8452590;28;20205;-78
2021/12/30 09:16:48;;;;;;;9.77;4.30;;;9.20;99.90;;;;;;8454943;27;20204;-79
2021/12/30 09:20:50;;;;;;;10.77;4.33;;;9.20;99.90;;;;;;8463376;27;20181;-78
2021/12/30 09:24:50;;;;;;;10.27;4.10;;;9.40;99.90;;;;;;8449576;28;20242;-79
2021/12/30 09:28:51;;;;;;;9.50;3.97;;;9.60;99.90;;;;;;8448811;28;20178;-79
2021/12/30 09:32:55;;;;;;;12.07;5.37;;;9.60;99.90;;;;;;8458170;28;20187;-79
2021/12/30 09:36:56;;;;;;;10.77;4.77;;;9.60;99.90;;;;;;8451282;28;20185;-79
2021/12/30 09:40:56;;;;;;;11.53;6.10;;;9.60;99.90;;;;;;8451068;27;20199;-80
2021/12/30 09:44:57;;;;;;;9.13;4.57;;;10.00;99.90;;;;;;8445692;27;20243;-80
2021/12/30 09:48:58;;;;;;;7.90;4.03;;;10.30;99.90;;;;;;8452627;27;20520;-80
2021/12/30 09:53:00;;;;;;;9.77;4.93;;;10.50;99.90;;;;;;8446241;27;20187;-80
2021/12/30 09:57:01;;;;;;;8.70;3.80;;;10.60;99.90;;;;;;8433053;27;20233;-78
2021/12/30 10:01:04;;;;;;;5.77;3.67;;;10.50;99.90;;;;;;8447534;27;20187;-78
2021/12/30 10:05:18;;;;;;;4.43;3.30;;;10.40;99.90;;;;;;8445981;27;20295;-78
2021/12/30 10:09:19;;;;;;;7.57;3.70;;;10.20;99.90;;;;;;8450619;27;20248;-79
2021/12/30 10:13:24;;;;;;;10.37;3.83;;;10.20;99.90;;;;;;8455465;27;20195;-78
2021/12/30 10:17:28;;;;;;;6.77;3.80;;;10.20;99.90;;;;;;8455498;27;20214;-78
2021/12/30 10:21:38;;;;;;;4.83;3.30;;;10.30;99.90;;;;;;8457344;28;20198;-78
2021/12/30 10:25:45;;;;;;;8.50;3.63;;;10.40;99.90;;;;;;8446769;28;20207;-79
2021/12/30 10:29:48;;;;;;;7.70;4.13;;;10.50;99.90;;;;;;8449305;28;20180;-79
2021/12/30 10:33:53;;;;;;;6.90;3.63;;;10.70;99.90;;;;;;8465853;27;20176;-79
2021/12/30 10:38:08;;;;;;;9.53;3.70;;;10.80;99.90;;;;;;8444417;27;20335;-79
2021/12/30 10:42:20;;;;;;;11.40;5.60;;;10.80;99.90;;;;;;8453559;27;20233;-79
2021/12/30 10:46:23;;;;;;;7.03;4.53;;;10.90;99.90;;;;;;8451579;27;20212;-79
2021/12/30 10:50:24;;;;;;;13.20;10.10;;;11.00;99.90;;;;;;8448177;27;20184;-77
2021/12/30 10:54:28;;;;;;;13.30;8.57;;;11.10;99.90;;;;;;8456190;27;20181;-78
2021/12/30 10:58:29;;;;;;;13.53;6.83;;;11.20;99.90;;;;;;8449713;27;20203;-78
2021/12/30 11:02:30;;;;;;;12.53;6.87;;;11.40;99.90;;;;;;8447865;27;20278;-79
2021/12/30 11:06:31;;;;;;;12.80;6.70;;;11.50;99.90;;;;;;8449228;28;20276;-78
2021/12/30 11:10:37;;;;;;;14.17;7.60;;;11.40;99.90;;;;;;8455649;28;20204;-79
2021/12/30 11:14:38;;;;;;;12.90;6.03;;;11.50;99.90;;;;;;8450014;28;20195;-78
2021/12/30 11:18:43;;;;;;;9.43;6.00;;;11.50;99.90;;;;;;8442104;28;20258;-78
2021/12/30 11:22:44;;;;;;;11.93;6.03;;;11.40;99.90;;;;;;8436342;28;20274;-79
2021/12/30 11:26:46;;;;;;;10.90;5.70;;;11.50;99.90;;;;;;8453279;28;20215;-79
2021/12/30 11:30:46;;;;;;;15.43;6.30;;;11.50;99.90;;;;;;8442500;28;20183;-79
2021/12/30 11:34:51;;;;;;;10.07;5.50;;;11.50;99.90;;;;;;8436565;28;20346;-79
2021/12/30 11:38:52;;;;;;;10.67;5.93;;;11.50;99.90;;;;;;8444732;28;20180;-78
2021/12/30 11:43:07;;;;;;;11.37;6.50;;;11.50;99.90;;;;;;8446222;28;20185;-79
2021/12/30 11:47:29;;;;;;;12.27;8.03;;;11.50;99.90;;;;;;8448149;28;20275;-79
2021/12/30 11:51:45;;;;;;;11.70;5.50;;;11.60;99.90;;;;;;8438390;28;20465;-79
2021/12/30 11:55:57;;;;;;;12.07;5.83;;;11.60;99.90;;;;;;8444494;28;20187;-80
2021/12/30 12:00:00;;;;;;;11.67;5.97;;;11.70;99.90;;;;;;8440996;28;20180;-78
2021/12/30 12:04:05;;;;;;;9.13;4.90;;;11.70;99.90;;;;;;8445723;28;20188;-79
2021/12/30 12:08:10;;;;;;;12.13;5.03;;;11.70;99.90;;;;;;8459385;28;20211;-78
2021/12/30 12:12:14;;;;;;;9.33;5.10;;;11.70;99.90;;;;;;8455914;27;20207;-78
2021/12/30 12:16:58;;;;;;;6.33;4.03;;;11.60;99.90;;;;;;8451666;27;20195;-80
2021/12/30 12:21:06;;;;;;;9.17;4.67;;;11.60;99.90;;;;;;8424778;28;20278;-80
2021/12/30 12:25:09;;;;;;;9.90;4.20;;;11.70;99.90;;;;;;8448331;27;20291;-80
2021/12/30 12:29:26;;;;;;;8.90;4.60;;;11.90;99.90;;;;;;8457312;27;20184;-79
2021/12/30 12:33:31;;;;;;;9.70;5.47;;;11.90;99.90;;;;;;8453084;27;20195;-79
2021/12/30 12:37:32;;;;;;;10.10;5.17;;;11.70;99.90;;;;;;8455298;27;20196;-79
2021/12/30 12:41:33;;;;;;;8.10;6.03;;;11.60;99.90;;;;;;8448747;27;20232;-79
2021/12/30 12:45:37;;;;;;;10.73;5.23;;;11.50;99.90;;;;;;8446449;27;20215;-79
2021/12/30 12:49:38;;;;;;;11.40;5.20;;;11.40;99.90;;;;;;8447799;27;20187;-79
2021/12/30 12:53:42;;;;;;;9.73;4.80;;;11.30;99.90;;;;;;8451344;28;20192;-79
2021/12/30 12:57:44;;;;;;;9.13;5.27;;;11.20;99.90;;;;;;8452679;28;20278;-78
2021/12/30 13:01:45;;;;;;;8.87;4.70;;;11.10;99.90;;;;;;8452776;27;20194;-78
2021/12/30 13:06:00;;;;;;;10.50;4.37;;;11.10;99.90;;;;;;8443643;27;20211;-78
2021/12/30 13:10:01;;;;;;;7.37;4.27;;;11.10;99.90;;;;;;8447206;28;20196;-79
2021/12/30 13:14:12;;;;;;;9.60;4.63;;;11.10;99.90;;;;;;8443889;28;20399;-78
2021/12/30 13:18:15;;;;;;;13.90;4.93;;;11.20;99.90;;;;;;8452172;27;20226;-79
2021/12/30 13:22:18;;;;;;;6.07;4.60;;;11.10;99.90;;;;;;8447969;27;20189;-79
2021/12/30 13:26:19;;;;;;;7.47;4.00;;;11.10;99.90;;;;;;8445802;27;20199;-79
2021/12/30 13:30:21;;;;;;;10.60;4.77;;;11.10;99.90;;;;;;8441928;27;20224;-79
2021/12/30 13:34:21;;;;;;;8.10;5.17;;;11.10;99.90;;;;;;8446673;28;20211;-78
2021/12/30 13:38:25;;;;;;;9.17;4.33;;;11.00;99.90;;;;;;8447256;27;20195;-78
2021/12/30 13:42:30;;;;;;;9.77;4.97;;;11.00;99.90;;;;;;8448009;27;20188;-78
2021/12/30 13:46:31;;;;;;;10.80;7.20;;;10.90;99.90;;;;;;8449910;27;20223;-78
2021/12/30 13:50:32;;;;;;;15.87;8.83;;;10.80;99.90;;;;;;8457328;27;20190;-79
2021/12/30 13:54:33;;;;;;;13.80;8.37;;;10.70;99.90;;;;;;8450334;28;20299;-78
2021/12/30 13:58:41;;;;;;;13.97;7.93;;;10.70;99.90;;;;;;8450865;27;20190;-78
2021/12/30 14:02:42;;;;;;;11.53;6.63;;;10.50;99.90;;;;;;8444423;27;20196;-78
2021/12/30 14:06:45;;;;;;;8.57;5.53;;;10.40;99.90;;;;;;8449989;27;20207;-79
2021/12/30 14:10:56;;;;;;;14.10;7.60;;;10.30;99.90;;;;;;8463590;27;20290;-79
2021/12/30 14:15:16;;;;;;;17.83;10.27;;;10.30;99.90;;;;;;8451002;27;20197;-79
2021/12/30 14:19:39;;;;;;;14.30;8.50;;;10.20;99.90;;;;;;8450802;27;20184;-79
2021/12/30 14:23:48;;;;;;;14.47;11.47;;;10.20;99.90;;;;;;8440303;27;20240;-79
2021/12/30 14:27:49;;;;;;;13.43;6.40;;;10.10;99.90;;;;;;8455056;27;20249;-79
2021/12/30 14:31:53;;;;;;;15.83;7.23;;;10.10;99.90;;;;;;8445005;27;20187;-79
2021/12/30 14:36:09;;;;;;;11.53;5.53;;;10.10;99.90;;;;;;8441256;28;20199;-80
2021/12/30 14:40:16;;;;;;;12.10;7.00;;;10.10;99.90;;;;;;8455827;27;20189;-77
2021/12/30 14:44:17;;;;;;;12.83;8.47;;;10.10;99.90;;;;;;8447332;27;20194;-78
2021/12/30 14:48:29;;;;;;;26.47;15.07;;;10.10;99.90;;;;;;8443000;28;20251;-78
2021/12/30 14:52:38;;;;;;;12.17;7.47;;;10.00;99.90;;;;;;8451623;27;20269;-79
2021/12/30 14:56:42;;;;;;;16.17;13.63;;;9.90;99.90;;;;;;8438303;28;20188;-79
2021/12/30 15:00:49;;;;;;;48.60;39.50;;;9.90;99.90;;;;;;8439384;28;20243;-78
2021/12/30 15:04:52;;;;;;;31.37;28.07;;;9.90;99.90;;;;;;8444869;28;20248;-79
2021/12/30 15:08:53;;;;;;;16.47;9.57;;;9.90;99.90;;;;;;8447966;27;20194;-79
2021/12/30 15:12:56;;;;;;;13.17;8.57;;;9.90;99.90;;;;;;8444299;28;20259;-79
2021/12/30 15:16:56;;;;;;;14.60;7.87;;;9.90;99.90;;;;;;8442483;28;20230;-78
2021/12/30 15:20:58;;;;;;;14.97;8.60;;;9.90;99.90;;;;;;8450358;28;20192;-78
2021/12/30 15:24:59;;;;;;;15.63;8.13;;;9.90;99.90;;;;;;8448860;28;20278;-78
2021/12/30 15:29:00;;;;;;;16.63;8.30;;;9.90;99.90;;;;;;8442214;28;20191;-81
2021/12/30 15:33:02;;;;;;;11.43;6.93;;;9.90;99.90;;;;;;8439593;28;20256;-82
2021/12/30 15:37:05;;;;;;;12.67;7.60;;;9.80;99.90;;;;;;8443097;28;20199;-82
2021/12/30 15:41:06;;;;;;;10.70;7.23;;;9.80;99.90;;;;;;8451541;28;20192;-81
2021/12/30 15:45:09;;;;;;;11.30;7.57;;;9.70;99.90;;;;;;8450739;28;20210;-82
2021/12/30 15:49:11;;;;;;;12.30;8.17;;;9.70;99.90;;;;;;8454977;27;20220;-83
2021/12/30 15:53:14;;;;;;;10.70;7.37;;;9.70;99.90;;;;;;8458071;27;20195;-82
2021/12/30 15:57:15;;;;;;;15.73;12.33;;;9.70;99.90;;;;;;8459996;27;20258;-82
2021/12/30 16:01:16;;;;;;;18.27;12.57;;;9.70;99.90;;;;;;8458462;28;20190;-82
2021/12/30 16:05:18;;;;;;;16.27;8.87;;;9.60;99.90;;;;;;8454603;28;20226;-82
2021/12/30 16:09:21;;;;;;;101.03;85.47;;;9.60;99.90;;;;;;8455937;27;20205;-81
2021/12/30 16:13:22;;;;;;;304.13;138.70;;;9.70;99.90;;;;;;8453014;27;20206;-82
2021/12/30 16:17:23;;;;;;;137.80;73.77;;;9.70;99.90;;;;;;8459966;27;20198;-82
2021/12/30 16:21:24;;;;;;;19.97;13.60;;;9.70;99.90;;;;;;8453827;27;20185;-81
2021/12/30 16:25:25;;;;;;;13.47;9.33;;;9.70;99.90;;;;;;8449945;27;20217;-82
2021/12/30 16:29:25;;;;;;;12.13;8.67;;;9.70;99.90;;;;;;8451900;27;20347;-78
2021/12/30 16:33:27;;;;;;;12.87;7.93;;;9.70;99.90;;;;;;8460970;27;20193;-82
2021/12/30 16:37:28;;;;;;;90.17;43.10;;;9.70;99.90;;;;;;8457081;27;20201;-80
2021/12/30 16:41:29;;;;;;;23.90;16.40;;;9.70;99.90;;;;;;8460920;28;20247;-80
2021/12/30 16:45:33;;;;;;;20.40;11.30;;;9.70;99.90;;;;;;8451312;27;20212;-81
2021/12/30 16:49:34;;;;;;;11.20;7.30;;;9.80;99.90;;;;;;8451127;28;20261;-81
2021/12/30 16:53:35;;;;;;;11.73;7.93;;;9.80;99.90;;;;;;8449451;27;20284;-81
2021/12/30 16:57:38;;;;;;;10.47;7.60;;;9.80;99.90;;;;;;8448246;27;20247;-82
2021/12/30 17:01:39;;;;;;;12.63;7.47;;;9.80;99.90;;;;;;8456011;27;20185;-81
2021/12/30 17:05:41;;;;;;;7.33;6.00;;;9.80;99.90;;;;;;8436044;27;20229;-81
2021/12/30 17:09:43;;;;;;;11.03;7.77;;;9.90;99.90;;;;;;8445162;27;20198;-80
2021/12/30 17:13:46;;;;;;;13.00;8.10;;;9.90;99.90;;;;;;8442106;27;20214;-80
2021/12/30 17:17:48;;;;;;;10.20;7.33;;;10.00;99.90;;;;;;8444786;27;20202;-80
2021/12/30 17:21:50;;;;;;;8.63;6.37;;;10.00;99.90;;;;;;8452252;27;20215;-82
2021/12/30 17:25:51;;;;;;;7.80;6.00;;;10.10;99.90;;;;;;8452649;27;20221;-82
2021/12/30 17:29:52;;;;;;;8.20;6.63;;;10.20;99.90;;;;;;8454394;27;20456;-81
2021/12/30 17:33:54;;;;;;;10.73;7.40;;;10.20;99.90;;;;;;8452767;27;20197;-81
2021/12/30 17:37:55;;;;;;;13.07;9.47;;;10.30;99.90;;;;;;8453298;27;20266;-83
2021/12/30 17:41:59;;;;;;;9.90;7.23;;;10.30;99.90;;;;;;8448978;27;20187;-81
2021/12/30 17:46:02;;;;;;;11.67;8.80;;;10.30;99.90;;;;;;8449270;27;20210;-81
2021/12/30 17:50:04;;;;;;;11.40;7.37;;;10.30;99.90;;;;;;8447760;27;20233;-80
2021/12/30 17:54:08;;;;;;;15.07;13.57;;;10.30;99.90;;;;;;8457622;27;20171;-80
2021/12/30 17:58:09;;;;;;;17.20;15.40;;;10.30;99.90;;;;;;8452707;27;20271;-81
2021/12/30 18:02:10;;;;;;;15.23;10.80;;;10.30;99.90;;;;;;8452504;27;20211;-81
2021/12/30 18:06:12;;;;;;;12.90;9.90;;;10.30;99.90;;;;;;8449342;28;20217;-84
2021/12/30 18:10:13;;;;;;;9.97;7.67;;;10.30;99.90;;;;;;8445509;27;20200;-79
2021/12/30 18:14:15;;;;;;;10.50;8.30;;;10.30;99.90;;;;;;8447415;27;20186;-83
2021/12/30 18:18:17;;;;;;;9.93;7.07;;;10.30;99.90;;;;;;8452918;27;20245;-82
2021/12/30 18:22:18;;;;;;;9.87;7.60;;;10.30;99.90;;;;;;8449947;27;20186;-82
2021/12/30 18:26:19;;;;;;;10.90;7.97;;;10.30;99.90;;;;;;8448327;27;20320;-82
2021/12/30 18:30:20;;;;;;;10.90;6.80;;;10.30;99.90;;;;;;8451492;27;20183;-83
2021/12/30 18:34:24;;;;;;;9.83;7.73;;;10.30;99.90;;;;;;8443523;28;20188;-82
2021/12/30 18:38:27;;;;;;;9.57;6.90;;;10.40;99.90;;;;;;8450625;27;20267;-82
2021/12/30 18:42:28;;;;;;;10.37;7.10;;;10.40;99.90;;;;;;8434346;28;20291;-84
2021/12/30 18:46:29;;;;;;;11.50;7.10;;;10.40;99.90;;;;;;8457271;27;20192;-82
2021/12/30 18:50:31;;;;;;;11.13;6.63;;;10.50;99.90;;;;;;8454978;28;20179;-82
2021/12/30 18:54:32;;;;;;;8.57;6.07;;;10.50;99.90;;;;;;8445632;27;20219;-81
2021/12/30 18:58:35;;;;;;;8.00;5.33;;;10.50;99.90;;;;;;8446944;28;20214;-84
2021/12/30 19:02:36;;;;;;;6.03;4.73;;;10.60;99.90;;;;;;8429516;28;20212;-83
2021/12/30 19:06:37;;;;;;;9.57;6.27;;;10.70;99.90;;;;;;8457319;27;20191;-84
2021/12/30 19:10:40;;;;;;;7.57;6.23;;;10.70;99.90;;;;;;8442305;27;20207;-82
2021/12/30 19:14:42;;;;;;;7.90;5.67;;;10.70;99.90;;;;;;8454974;28;20218;-82
2021/12/30 19:18:43;;;;;;;9.07;6.40;;;10.70;99.90;;;;;;8455882;28;20204;-83
2021/12/30 19:22:49;;;;;;;7.87;5.57;;;10.70;99.90;;;;;;8464172;27;20189;-81
2021/12/30 19:26:50;;;;;;;9.50;5.90;;;10.70;99.90;;;;;;8447483;27;20195;-82
2021/12/30 19:30:52;;;;;;;9.53;5.73;;;10.70;99.90;;;;;;8454797;27;20247;-83
2021/12/30 19:34:54;;;;;;;9.80;5.63;;;10.80;99.90;;;;;;8449569;27;20218;-82
2021/12/30 19:38:55;;;;;;;7.07;4.83;;;10.80;99.90;;;;;;8451467;27;20192;-83
2021/12/30 19:42:59;;;;;;;7.23;5.27;;;10.80;99.90;;;;;;8448027;27;20191;-80
2021/12/30 19:47:00;;;;;;;10.50;7.20;;;10.80;99.90;;;;;;8453641;27;20230;-84
2021/12/30 19:51:03;;;;;;;7.87;4.73;;;10.90;99.90;;;;;;8459422;27;20184;-83
2021/12/30 19:55:05;;;;;;;7.33;4.60;;;10.90;99.90;;;;;;8450242;27;20200;-82
2021/12/30 19:59:08;;;;;;;4.73;3.70;;;11.00;99.90;;;;;;8458235;27;20192;-83
2021/12/30 20:03:09;;;;;;;6.43;3.73;;;11.00;99.90;;;;;;8453227;28;20195;-82
2021/12/30 20:07:10;;;;;;;6.33;3.90;;;11.10;99.90;;;;;;8454373;27;20226;-83
2021/12/30 20:11:11;;;;;;;5.63;3.07;;;11.10;99.90;;;;;;8450662;28;20199;-83
2021/12/30 20:15:13;;;;;;;3.90;3.10;;;11.10;99.90;;;;;;8461284;27;20278;-82
2021/12/30 20:19:14;;;;;;;5.07;3.47;;;11.20;99.90;;;;;;8457359;28;20194;-81
2021/12/30 20:23:15;;;;;;;4.83;2.63;;;11.20;99.90;;;;;;8448559;27;20179;-82
2021/12/30 20:27:17;;;;;;;3.20;2.60;;;11.30;99.90;;;;;;8455030;27;20234;-82
2021/12/30 20:31:20;;;;;;;4.23;3.27;;;11.30;99.90;;;;;;8451932;27;20253;-82
2021/12/30 20:35:22;;;;;;;5.77;3.13;;;11.30;99.90;;;;;;8463318;27;20214;-82
2021/12/30 20:39:23;;;;;;;5.37;3.60;;;11.30;99.90;;;;;;8451553;27;20188;-83
2021/12/30 20:43:24;;;;;;;4.93;2.80;;;11.40;99.90;;;;;;8454498;27;20192;-83
2021/12/30 20:47:25;;;;;;;5.77;3.43;;;11.40;99.90;;;;;;8463672;27;20221;-83
2021/12/30 20:51:27;;;;;;;4.33;3.00;;;11.40;99.90;;;;;;8453852;27;20227;-84
2021/12/30 20:55:34;;;;;;;4.57;2.97;;;11.40;99.90;;;;;;8454502;27;20272;-81
2021/12/30 20:59:36;;;;;;;5.67;3.10;;;11.50;99.90;;;;;;8449309;27;20175;-81
2021/12/30 21:03:38;;;;;;;4.57;2.33;;;11.50;99.90;;;;;;8452057;27;20187;-81